sensor_id;sensor_type;location;lat;lon;timestamp;temperature;humidity
75648;DHT22;66269;51.466;7.260;2023-01-26T00:00:06;21.30;36.90
75648;DHT22;66269;51.466;7.260;2023-01-26T00:02:32;21.30;37.00
75648;DHT22;66269;51.466;7.260;2023-01-26T00:04:57;21.30;36.90
75648;DHT22;66269;51.466;7.260;2023-01-26T00:07:23;21.30;37.00
75648;DHT22;66269;51.466;7.260;2023-01-26T00:09:49;21.30;36.80
75648;DHT22;66269;51.466;7.260;2023-01-26T00:12:14;21.30;36.80
75648;DHT22;66269;51.466;7.260;2023-01-26T00:14:40;21.30;36.90
75648;DHT22;66269;51.466;7.260;2023-01-26T00:17:16;21.40;36.90
75648;DHT22;66269;51.466;7.260;2023-01-26T00:19:51;21.20;36.70
75648;DHT22;66269;51.466;7.260;2023-01-26T00:22:17;21.20;36.80
75648;DHT22;66269;51.466;7.260;2023-01-26T00:24:42;21.20;36.80
75648;DHT22;66269;51.466;7.260;2023-01-26T00:27:08;21.20;36.80
75648;DHT22;66269;51.466;7.260;2023-01-26T00:29:33;21.20;36.80
75648;DHT22;66269;51.466;7.260;2023-01-26T00:31:59;21.20;36.70
75648;DHT22;66269;51.466;7.260;2023-01-26T00:34:24;21.20;36.90
75648;DHT22;66269;51.466;7.260;2023-01-26T00:36:50;21.20;36.70
75648;DHT22;66269;51.466;7.260;2023-01-26T00:39:15;21.20;36.60
75648;DHT22;66269;51.466;7.260;2023-01-26T00:41:41;21.20;36.90
75648;DHT22;66269;51.466;7.260;2023-01-26T00:44:25;21.20;36.50
75648;DHT22;66269;51.466;7.260;2023-01-26T00:46:51;21.30;36.60
75648;DHT22;66269;51.466;7.260;2023-01-26T00:49:16;21.20;36.50
75648;DHT22;66269;51.466;7.260;2023-01-26T00:51:42;21.20;36.60
75648;DHT22;66269;51.466;7.260;2023-01-26T00:54:07;21.30;36.60
75648;DHT22;66269;51.466;7.260;2023-01-26T00:56:33;21.20;36.50
75648;DHT22;66269;51.466;7.260;2023-01-26T00:58:58;21.20;36.40
75648;DHT22;66269;51.466;7.260;2023-01-26T01:01:24;21.20;36.50
75648;DHT22;66269;51.466;7.260;2023-01-26T01:03:49;21.20;36.60
75648;DHT22;66269;51.466;7.260;2023-01-26T01:06:16;21.20;36.60
75648;DHT22;66269;51.466;7.260;2023-01-26T01:08:42;21.20;36.70
75648;DHT22;66269;51.466;7.260;2023-01-26T01:11:10;21.20;36.40
75648;DHT22;66269;51.466;7.260;2023-01-26T01:13:36;21.20;36.40
75648;DHT22;66269;51.466;7.260;2023-01-26T01:16:10;21.20;36.60
75648;DHT22;66269;51.466;7.260;2023-01-26T01:18:36;21.20;36.60
75648;DHT22;66269;51.466;7.260;2023-01-26T01:21:06;21.20;36.80
75648;DHT22;66269;51.466;7.260;2023-01-26T01:23:32;21.10;36.50
75648;DHT22;66269;51.466;7.260;2023-01-26T01:25:59;21.20;36.40
75648;DHT22;66269;51.466;7.260;2023-01-26T01:28:25;21.20;36.80
75648;DHT22;66269;51.466;7.260;2023-01-26T01:30:51;21.10;36.70
75648;DHT22;66269;51.466;7.260;2023-01-26T01:33:16;21.20;36.60
75648;DHT22;66269;51.466;7.260;2023-01-26T01:35:42;21.20;36.60
75648;DHT22;66269;51.466;7.260;2023-01-26T01:38:07;21.20;36.50
75648;DHT22;66269;51.466;7.260;2023-01-26T01:40:33;21.30;36.80
75648;DHT22;66269;51.466;7.260;2023-01-26T01:42:58;21.20;36.80
75648;DHT22;66269;51.466;7.260;2023-01-26T01:45:40;21.20;36.50
75648;DHT22;66269;51.466;7.260;2023-01-26T01:48:15;21.20;36.50
75648;DHT22;66269;51.466;7.260;2023-01-26T01:50:42;21.30;36.70
75648;DHT22;66269;51.466;7.260;2023-01-26T01:53:11;21.10;36.50
75648;DHT22;66269;51.466;7.260;2023-01-26T01:55:39;21.20;36.70
75648;DHT22;66269;51.466;7.260;2023-01-26T01:58:06;21.20;36.90
75648;DHT22;66269;51.466;7.260;2023-01-26T02:00:32;21.20;36.60
75648;DHT22;66269;51.466;7.260;2023-01-26T02:03:04;21.20;36.60
75648;DHT22;66269;51.466;7.260;2023-01-26T02:05:51;21.20;36.60
75648;DHT22;66269;51.466;7.260;2023-01-26T02:08:18;21.10;36.80
75648;DHT22;66269;51.466;7.260;2023-01-26T02:10:47;21.20;36.60
75648;DHT22;66269;51.466;7.260;2023-01-26T02:13:15;21.20;36.50
75648;DHT22;66269;51.466;7.260;2023-01-26T02:15:41;21.20;36.60
75648;DHT22;66269;51.466;7.260;2023-01-26T02:18:07;21.20;36.50
75648;DHT22;66269;51.466;7.260;2023-01-26T02:20:58;21.20;36.80
75648;DHT22;66269;51.466;7.260;2023-01-26T02:23:54;21.20;36.50
75648;DHT22;66269;51.466;7.260;2023-01-26T02:26:28;21.20;36.70
75648;DHT22;66269;51.466;7.260;2023-01-26T02:28:55;21.10;36.50
75648;DHT22;66269;51.466;7.260;2023-01-26T02:31:22;21.20;36.40
75648;DHT22;66269;51.466;7.260;2023-01-26T02:33:48;21.10;36.30
75648;DHT22;66269;51.466;7.260;2023-01-26T02:36:26;21.20;36.60
75648;DHT22;66269;51.466;7.260;2023-01-26T02:41:36;21.20;36.60
75648;DHT22;66269;51.466;7.260;2023-01-26T02:44:21;21.10;36.50
75648;DHT22;66269;51.466;7.260;2023-01-26T02:46:47;21.10;36.40
75648;DHT22;66269;51.466;7.260;2023-01-26T02:49:12;21.20;36.40
75648;DHT22;66269;51.466;7.260;2023-01-26T02:51:56;21.10;36.50
75648;DHT22;66269;51.466;7.260;2023-01-26T02:54:22;21.10;36.30
75648;DHT22;66269;51.466;7.260;2023-01-26T02:57:06;21.20;36.60
75648;DHT22;66269;51.466;7.260;2023-01-26T02:59:31;21.20;36.60
75648;DHT22;66269;51.466;7.260;2023-01-26T03:01:57;21.10;36.40
75648;DHT22;66269;51.466;7.260;2023-01-26T03:04:23;21.10;36.60
75648;DHT22;66269;51.466;7.260;2023-01-26T03:06:49;21.10;36.50
75648;DHT22;66269;51.466;7.260;2023-01-26T03:09:14;21.10;36.50
75648;DHT22;66269;51.466;7.260;2023-01-26T03:11:40;21.20;36.40
75648;DHT22;66269;51.466;7.260;2023-01-26T03:14:10;21.10;36.50
75648;DHT22;66269;51.466;7.260;2023-01-26T03:16:36;21.10;36.50
75648;DHT22;66269;51.466;7.260;2023-01-26T03:19:02;21.10;36.20
75648;DHT22;66269;51.466;7.260;2023-01-26T03:21:27;21.20;36.40
75648;DHT22;66269;51.466;7.260;2023-01-26T03:24:13;21.20;36.70
75648;DHT22;66269;51.466;7.260;2023-01-26T03:26:57;21.20;36.50
75648;DHT22;66269;51.466;7.260;2023-01-26T03:29:41;21.10;36.70
75648;DHT22;66269;51.466;7.260;2023-01-26T03:32:07;21.10;36.50
75648;DHT22;66269;51.466;7.260;2023-01-26T03:34:33;21.10;36.80
75648;DHT22;66269;51.466;7.260;2023-01-26T03:36:59;21.20;36.60
75648;DHT22;66269;51.466;7.260;2023-01-26T03:39:25;21.10;36.60
75648;DHT22;66269;51.466;7.260;2023-01-26T03:42:09;21.20;36.70
75648;DHT22;66269;51.466;7.260;2023-01-26T03:44:53;21.20;36.50
75648;DHT22;66269;51.466;7.260;2023-01-26T03:47:37;21.20;36.40
75648;DHT22;66269;51.466;7.260;2023-01-26T03:50:22;21.10;36.30
75648;DHT22;66269;51.466;7.260;2023-01-26T03:53:17;21.10;36.70
75648;DHT22;66269;51.466;7.260;2023-01-26T03:56:01;21.10;36.50
75648;DHT22;66269;51.466;7.260;2023-01-26T03:58:53;21.10;36.40
75648;DHT22;66269;51.466;7.260;2023-01-26T04:01:22;21.10;36.80
75648;DHT22;66269;51.466;7.260;2023-01-26T04:03:53;21.10;36.60
75648;DHT22;66269;51.466;7.260;2023-01-26T04:06:40;21.20;36.40
75648;DHT22;66269;51.466;7.260;2023-01-26T04:09:25;21.10;36.60
75648;DHT22;66269;51.466;7.260;2023-01-26T04:11:51;21.10;36.60
75648;DHT22;66269;51.466;7.260;2023-01-26T04:14:17;21.10;36.30
75648;DHT22;66269;51.466;7.260;2023-01-26T04:17:02;21.10;36.50
75648;DHT22;66269;51.466;7.260;2023-01-26T04:19:47;21.10;36.40
75648;DHT22;66269;51.466;7.260;2023-01-26T04:22:36;21.10;36.50
75648;DHT22;66269;51.466;7.260;2023-01-26T04:25:08;21.20;36.40
75648;DHT22;66269;51.466;7.260;2023-01-26T04:27:34;21.10;36.50
75648;DHT22;66269;51.466;7.260;2023-01-26T04:30:01;21.10;36.60
75648;DHT22;66269;51.466;7.260;2023-01-26T04:32:28;21.20;36.60
75648;DHT22;66269;51.466;7.260;2023-01-26T04:34:54;21.10;36.60
75648;DHT22;66269;51.466;7.260;2023-01-26T04:37:19;21.10;36.30
75648;DHT22;66269;51.466;7.260;2023-01-26T04:39:45;21.10;36.60
75648;DHT22;66269;51.466;7.260;2023-01-26T04:42:10;21.20;36.40
75648;DHT22;66269;51.466;7.260;2023-01-26T04:44:36;21.20;36.30
75648;DHT22;66269;51.466;7.260;2023-01-26T04:47:01;21.20;36.40
75648;DHT22;66269;51.466;7.260;2023-01-26T04:49:27;21.00;36.50
75648;DHT22;66269;51.466;7.260;2023-01-26T04:51:52;21.10;36.40
75648;DHT22;66269;51.466;7.260;2023-01-26T04:54:18;21.00;36.50
75648;DHT22;66269;51.466;7.260;2023-01-26T04:56:43;21.20;36.60
75648;DHT22;66269;51.466;7.260;2023-01-26T04:59:09;21.10;36.30
75648;DHT22;66269;51.466;7.260;2023-01-26T05:01:35;21.20;36.50
75648;DHT22;66269;51.466;7.260;2023-01-26T05:04:02;21.10;36.60
75648;DHT22;66269;51.466;7.260;2023-01-26T05:06:29;21.10;36.60
75648;DHT22;66269;51.466;7.260;2023-01-26T05:08:55;21.20;36.60
75648;DHT22;66269;51.466;7.260;2023-01-26T05:11:21;21.10;36.50
75648;DHT22;66269;51.466;7.260;2023-01-26T05:13:47;21.10;36.40
75648;DHT22;66269;51.466;7.260;2023-01-26T05:16:13;21.10;36.60
75648;DHT22;66269;51.466;7.260;2023-01-26T05:18:40;21.10;36.70
75648;DHT22;66269;51.466;7.260;2023-01-26T05:21:06;21.20;36.60
75648;DHT22;66269;51.466;7.260;2023-01-26T05:23:32;21.20;36.60
75648;DHT22;66269;51.466;7.260;2023-01-26T05:25:58;21.10;36.50
75648;DHT22;66269;51.466;7.260;2023-01-26T05:28:23;21.20;36.50
75648;DHT22;66269;51.466;7.260;2023-01-26T05:30:49;21.20;36.40
75648;DHT22;66269;51.466;7.260;2023-01-26T05:33:15;21.10;36.60
75648;DHT22;66269;51.466;7.260;2023-01-26T05:35:41;21.20;36.50
75648;DHT22;66269;51.466;7.260;2023-01-26T05:38:07;21.20;36.60
75648;DHT22;66269;51.466;7.260;2023-01-26T05:40:32;21.20;36.50
75648;DHT22;66269;51.466;7.260;2023-01-26T05:42:58;21.10;36.60
75648;DHT22;66269;51.466;7.260;2023-01-26T05:45:24;21.10;36.50
75648;DHT22;66269;51.466;7.260;2023-01-26T05:47:49;21.10;36.40
75648;DHT22;66269;51.466;7.260;2023-01-26T05:50:15;21.20;36.60
75648;DHT22;66269;51.466;7.260;2023-01-26T05:52:42;21.20;36.50
75648;DHT22;66269;51.466;7.260;2023-01-26T05:55:08;21.20;36.60
75648;DHT22;66269;51.466;7.260;2023-01-26T05:57:33;21.20;36.60
75648;DHT22;66269;51.466;7.260;2023-01-26T05:59:59;21.40;36.50
75648;DHT22;66269;51.466;7.260;2023-01-26T06:02:24;21.40;36.20
75648;DHT22;66269;51.466;7.260;2023-01-26T06:04:53;21.50;36.40
75648;DHT22;66269;51.466;7.260;2023-01-26T06:07:18;21.40;36.60
75648;DHT22;66269;51.466;7.260;2023-01-26T06:09:44;21.50;36.40
75648;DHT22;66269;51.466;7.260;2023-01-26T06:12:14;21.40;36.30
75648;DHT22;66269;51.466;7.260;2023-01-26T06:14:40;21.40;36.30
75648;DHT22;66269;51.466;7.260;2023-01-26T06:17:06;21.20;36.80
75648;DHT22;66269;51.466;7.260;2023-01-26T06:19:31;21.10;36.60
75648;DHT22;66269;51.466;7.260;2023-01-26T06:21:57;20.90;36.40
75648;DHT22;66269;51.466;7.260;2023-01-26T06:24:22;20.90;36.60
75648;DHT22;66269;51.466;7.260;2023-01-26T06:26:48;20.80;37.00
75648;DHT22;66269;51.466;7.260;2023-01-26T06:29:14;20.80;37.00
75648;DHT22;66269;51.466;7.260;2023-01-26T06:31:39;20.70;37.20
75648;DHT22;66269;51.466;7.260;2023-01-26T06:34:05;20.70;37.30
75648;DHT22;66269;51.466;7.260;2023-01-26T06:36:31;20.70;37.30
75648;DHT22;66269;51.466;7.260;2023-01-26T06:38:57;20.70;37.40
75648;DHT22;66269;51.466;7.260;2023-01-26T06:41:23;20.70;38.00
75648;DHT22;66269;51.466;7.260;2023-01-26T06:43:48;20.70;38.20
75648;DHT22;66269;51.466;7.260;2023-01-26T06:46:15;20.60;38.30
75648;DHT22;66269;51.466;7.260;2023-01-26T06:48:41;20.60;38.00
75648;DHT22;66269;51.466;7.260;2023-01-26T06:53:54;20.60;38.10
75648;DHT22;66269;51.466;7.260;2023-01-26T06:56:21;20.60;38.60
75648;DHT22;66269;51.466;7.260;2023-01-26T06:58:47;20.70;38.80
75648;DHT22;66269;51.466;7.260;2023-01-26T07:01:23;20.60;38.90
75648;DHT22;66269;51.466;7.260;2023-01-26T07:03:51;20.50;38.90
75648;DHT22;66269;51.466;7.260;2023-01-26T07:06:17;20.50;39.00
75648;DHT22;66269;51.466;7.260;2023-01-26T07:08:43;20.50;39.20
75648;DHT22;66269;51.466;7.260;2023-01-26T07:11:08;20.50;39.00
75648;DHT22;66269;51.466;7.260;2023-01-26T07:13:34;20.50;39.40
75648;DHT22;66269;51.466;7.260;2023-01-26T07:16:04;20.50;39.10
75648;DHT22;66269;51.466;7.260;2023-01-26T07:18:30;20.50;39.10
75648;DHT22;66269;51.466;7.260;2023-01-26T07:21:01;20.50;39.30
75648;DHT22;66269;51.466;7.260;2023-01-26T07:23:27;20.50;39.00
75648;DHT22;66269;51.466;7.260;2023-01-26T07:25:53;20.50;39.10
75648;DHT22;66269;51.466;7.260;2023-01-26T07:28:18;20.50;38.80
75648;DHT22;66269;51.466;7.260;2023-01-26T07:30:44;20.50;38.70
75648;DHT22;66269;51.466;7.260;2023-01-26T07:33:09;20.50;38.90
75648;DHT22;66269;51.466;7.260;2023-01-26T07:35:35;20.50;38.50
75648;DHT22;66269;51.466;7.260;2023-01-26T07:38:03;20.50;38.50
75648;DHT22;66269;51.466;7.260;2023-01-26T07:40:28;20.50;38.70
75648;DHT22;66269;51.466;7.260;2023-01-26T07:42:55;20.60;38.60
75648;DHT22;66269;51.466;7.260;2023-01-26T07:45:20;20.60;38.50
75648;DHT22;66269;51.466;7.260;2023-01-26T07:47:46;20.60;38.30
75648;DHT22;66269;51.466;7.260;2023-01-26T07:50:12;20.40;38.70
75648;DHT22;66269;51.466;7.260;2023-01-26T07:52:38;20.60;38.60
75648;DHT22;66269;51.466;7.260;2023-01-26T07:55:04;20.50;38.40
75648;DHT22;66269;51.466;7.260;2023-01-26T07:57:30;20.50;38.70
75648;DHT22;66269;51.466;7.260;2023-01-26T07:59:56;20.60;38.40
75648;DHT22;66269;51.466;7.260;2023-01-26T08:02:22;20.50;38.30
75648;DHT22;66269;51.466;7.260;2023-01-26T08:04:47;20.50;38.20
75648;DHT22;66269;51.466;7.260;2023-01-26T08:07:13;20.60;38.20
75648;DHT22;66269;51.466;7.260;2023-01-26T08:09:39;20.60;38.60
75648;DHT22;66269;51.466;7.260;2023-01-26T08:12:05;20.60;38.10
75648;DHT22;66269;51.466;7.260;2023-01-26T08:14:30;20.60;38.10
75648;DHT22;66269;51.466;7.260;2023-01-26T08:16:56;20.50;38.20
75648;DHT22;66269;51.466;7.260;2023-01-26T08:19:21;20.60;38.40
75648;DHT22;66269;51.466;7.260;2023-01-26T08:21:47;20.60;38.10
75648;DHT22;66269;51.466;7.260;2023-01-26T08:24:12;20.50;38.10
75648;DHT22;66269;51.466;7.260;2023-01-26T08:26:38;20.60;38.20
75648;DHT22;66269;51.466;7.260;2023-01-26T08:29:03;20.60;38.20
75648;DHT22;66269;51.466;7.260;2023-01-26T08:31:29;20.60;38.10
75648;DHT22;66269;51.466;7.260;2023-01-26T08:33:55;20.70;37.80
75648;DHT22;66269;51.466;7.260;2023-01-26T08:36:21;20.60;38.00
75648;DHT22;66269;51.466;7.260;2023-01-26T08:38:47;20.60;38.20
75648;DHT22;66269;51.466;7.260;2023-01-26T08:41:12;20.60;38.10
75648;DHT22;66269;51.466;7.260;2023-01-26T08:43:38;20.60;38.10
75648;DHT22;66269;51.466;7.260;2023-01-26T08:46:04;20.60;38.10
75648;DHT22;66269;51.466;7.260;2023-01-26T08:48:30;20.60;38.00
75648;DHT22;66269;51.466;7.260;2023-01-26T08:50:58;20.50;38.10
75648;DHT22;66269;51.466;7.260;2023-01-26T08:53:24;20.60;37.90
75648;DHT22;66269;51.466;7.260;2023-01-26T08:55:51;20.70;38.10
75648;DHT22;66269;51.466;7.260;2023-01-26T08:58:17;20.60;38.00
75648;DHT22;66269;51.466;7.260;2023-01-26T09:00:43;20.60;37.90
75648;DHT22;66269;51.466;7.260;2023-01-26T09:03:08;20.70;38.00
75648;DHT22;66269;51.466;7.260;2023-01-26T09:05:36;20.60;37.90
75648;DHT22;66269;51.466;7.260;2023-01-26T09:08:03;20.60;38.10
75648;DHT22;66269;51.466;7.260;2023-01-26T09:10:29;20.70;37.80
75648;DHT22;66269;51.466;7.260;2023-01-26T09:12:56;20.60;38.20
75648;DHT22;66269;51.466;7.260;2023-01-26T09:15:22;20.70;38.50
75648;DHT22;66269;51.466;7.260;2023-01-26T09:17:48;20.70;38.60
75648;DHT22;66269;51.466;7.260;2023-01-26T09:20:14;20.60;38.50
75648;DHT22;66269;51.466;7.260;2023-01-26T09:22:39;20.70;38.70
75648;DHT22;66269;51.466;7.260;2023-01-26T09:25:05;20.80;38.70
75648;DHT22;66269;51.466;7.260;2023-01-26T09:27:31;20.80;38.60
75648;DHT22;66269;51.466;7.260;2023-01-26T09:29:57;20.80;38.40
75648;DHT22;66269;51.466;7.260;2023-01-26T09:32:22;20.80;38.30
75648;DHT22;66269;51.466;7.260;2023-01-26T09:34:48;20.80;38.50
75648;DHT22;66269;51.466;7.260;2023-01-26T09:37:14;20.80;38.20
75648;DHT22;66269;51.466;7.260;2023-01-26T09:39:39;20.80;38.40
75648;DHT22;66269;51.466;7.260;2023-01-26T09:44:51;20.80;38.50
75648;DHT22;66269;51.466;7.260;2023-01-26T09:50:18;20.70;38.70
75648;DHT22;66269;51.466;7.260;2023-01-26T09:52:58;20.80;38.80
75648;DHT22;66269;51.466;7.260;2023-01-26T09:55:24;20.80;38.80
75648;DHT22;66269;51.466;7.260;2023-01-26T09:57:56;20.80;38.70
75648;DHT22;66269;51.466;7.260;2023-01-26T10:00:39;20.80;38.80
75648;DHT22;66269;51.466;7.260;2023-01-26T10:06:04;20.80;38.60
75648;DHT22;66269;51.466;7.260;2023-01-26T10:08:31;20.80;38.70
75648;DHT22;66269;51.466;7.260;2023-01-26T10:11:00;20.80;38.70
75648;DHT22;66269;51.466;7.260;2023-01-26T10:13:28;20.80;38.80
75648;DHT22;66269;51.466;7.260;2023-01-26T10:16:05;20.70;38.80
75648;DHT22;66269;51.466;7.260;2023-01-26T10:18:49;20.80;38.90
75648;DHT22;66269;51.466;7.260;2023-01-26T10:21:20;20.80;38.80
75648;DHT22;66269;51.466;7.260;2023-01-26T10:23:48;20.80;38.70
75648;DHT22;66269;51.466;7.260;2023-01-26T10:26:22;20.90;38.40
75648;DHT22;66269;51.466;7.260;2023-01-26T10:28:50;20.90;38.00
75648;DHT22;66269;51.466;7.260;2023-01-26T10:31:21;20.80;38.70
75648;DHT22;66269;51.466;7.260;2023-01-26T10:36:15;20.90;38.40
75648;DHT22;66269;51.466;7.260;2023-01-26T10:38:43;20.80;38.80
75648;DHT22;66269;51.466;7.260;2023-01-26T10:43:50;20.90;38.30
75648;DHT22;66269;51.466;7.260;2023-01-26T10:48:52;21.00;38.10
75648;DHT22;66269;51.466;7.260;2023-01-26T10:51:23;20.90;38.10
75648;DHT22;66269;51.466;7.260;2023-01-26T10:53:49;20.90;38.10
75648;DHT22;66269;51.466;7.260;2023-01-26T10:56:15;21.00;38.20
75648;DHT22;66269;51.466;7.260;2023-01-26T10:58:56;21.00;38.20
75648;DHT22;66269;51.466;7.260;2023-01-26T11:01:24;21.00;38.40
75648;DHT22;66269;51.466;7.260;2023-01-26T11:06:27;21.00;38.40
75648;DHT22;66269;51.466;7.260;2023-01-26T11:08:53;21.00;38.40
75648;DHT22;66269;51.466;7.260;2023-01-26T11:11:32;21.00;38.30
75648;DHT22;66269;51.466;7.260;2023-01-26T11:14:18;21.00;38.50
75648;DHT22;66269;51.466;7.260;2023-01-26T11:16:59;21.00;38.40
75648;DHT22;66269;51.466;7.260;2023-01-26T11:19:41;21.10;38.50
75648;DHT22;66269;51.466;7.260;2023-01-26T11:22:12;21.00;38.50
75648;DHT22;66269;51.466;7.260;2023-01-26T11:27:41;20.90;38.00
75648;DHT22;66269;51.466;7.260;2023-01-26T11:35:59;21.00;38.90
75648;DHT22;66269;51.466;7.260;2023-01-26T11:38:33;20.90;38.50
75648;DHT22;66269;51.466;7.260;2023-01-26T11:43:57;20.90;38.50
75648;DHT22;66269;51.466;7.260;2023-01-26T11:46:53;20.90;39.40
75648;DHT22;66269;51.466;7.260;2023-01-26T11:58:01;21.00;38.80
75648;DHT22;66269;51.466;7.260;2023-01-26T12:00:39;21.00;38.70
75648;DHT22;66269;51.466;7.260;2023-01-26T12:03:17;21.10;38.60
75648;DHT22;66269;51.466;7.260;2023-01-26T12:05:49;21.00;38.70
75648;DHT22;66269;51.466;7.260;2023-01-26T12:08:31;21.10;38.70
75648;DHT22;66269;51.466;7.260;2023-01-26T12:13:54;21.00;38.30
75648;DHT22;66269;51.466;7.260;2023-01-26T12:19:51;21.00;38.80
75648;DHT22;66269;51.466;7.260;2023-01-26T12:22:07;21.10;38.90
75648;DHT22;66269;51.466;7.260;2023-01-26T12:24:42;21.00;38.60
75648;DHT22;66269;51.466;7.260;2023-01-26T12:27:16;21.10;38.90
75648;DHT22;66269;51.466;7.260;2023-01-26T12:29:53;21.10;38.80
75648;DHT22;66269;51.466;7.260;2023-01-26T12:32:22;21.10;38.90
75648;DHT22;66269;51.466;7.260;2023-01-26T12:34:50;21.10;38.90
75648;DHT22;66269;51.466;7.260;2023-01-26T12:37:51;21.10;38.90
75648;DHT22;66269;51.466;7.260;2023-01-26T12:40:29;21.10;38.90
75648;DHT22;66269;51.466;7.260;2023-01-26T12:43:20;21.10;38.80
75648;DHT22;66269;51.466;7.260;2023-01-26T12:45:50;21.20;39.00
75648;DHT22;66269;51.466;7.260;2023-01-26T12:48:49;21.10;38.80
75648;DHT22;66269;51.466;7.260;2023-01-26T12:51:30;21.00;39.00
75648;DHT22;66269;51.466;7.260;2023-01-26T12:54:06;21.00;38.80
75648;DHT22;66269;51.466;7.260;2023-01-26T12:59:32;21.10;39.10
75648;DHT22;66269;51.466;7.260;2023-01-26T13:04:42;21.10;38.70
75648;DHT22;66269;51.466;7.260;2023-01-26T13:10:21;21.00;38.90
75648;DHT22;66269;51.466;7.260;2023-01-26T13:15:14;21.00;38.90
75648;DHT22;66269;51.466;7.260;2023-01-26T13:17:54;21.00;39.00
75648;DHT22;66269;51.466;7.260;2023-01-26T13:20:47;21.10;38.90
75648;DHT22;66269;51.466;7.260;2023-01-26T13:23:35;21.10;39.00
75648;DHT22;66269;51.466;7.260;2023-01-26T13:26:40;21.00;39.10
75648;DHT22;66269;51.466;7.260;2023-01-26T13:31:52;21.00;39.10
75648;DHT22;66269;51.466;7.260;2023-01-26T13:36:55;21.00;39.50
75648;DHT22;66269;51.466;7.260;2023-01-26T13:41:48;21.00;39.40
75648;DHT22;66269;51.466;7.260;2023-01-26T13:44:22;21.10;39.60
75648;DHT22;66269;51.466;7.260;2023-01-26T13:46:55;21.00;39.50
75648;DHT22;66269;51.466;7.260;2023-01-26T13:49:42;21.00;39.20
75648;DHT22;66269;51.466;7.260;2023-01-26T13:52:21;21.00;39.50
75648;DHT22;66269;51.466;7.260;2023-01-26T13:54:49;21.00;39.50
75648;DHT22;66269;51.466;7.260;2023-01-26T13:57:41;21.10;39.30
75648;DHT22;66269;51.466;7.260;2023-01-26T14:00:19;21.10;39.40
75648;DHT22;66269;51.466;7.260;2023-01-26T14:02:47;21.20;39.20
75648;DHT22;66269;51.466;7.260;2023-01-26T14:05:21;21.10;39.60
75648;DHT22;66269;51.466;7.260;2023-01-26T14:07:48;21.00;39.30
75648;DHT22;66269;51.466;7.260;2023-01-26T14:10:18;21.10;39.50
75648;DHT22;66269;51.466;7.260;2023-01-26T14:12:54;21.00;39.80
75648;DHT22;66269;51.466;7.260;2023-01-26T14:15:27;21.10;39.40
75648;DHT22;66269;51.466;7.260;2023-01-26T14:17:59;21.00;39.60
75648;DHT22;66269;51.466;7.260;2023-01-26T14:20:36;21.00;39.70
75648;DHT22;66269;51.466;7.260;2023-01-26T14:23:07;21.00;39.60
75648;DHT22;66269;51.466;7.260;2023-01-26T14:25:36;21.10;39.50
75648;DHT22;66269;51.466;7.260;2023-01-26T14:28:02;21.20;39.50
75648;DHT22;66269;51.466;7.260;2023-01-26T14:30:30;21.10;39.60
75648;DHT22;66269;51.466;7.260;2023-01-26T14:33:12;21.10;39.80
75648;DHT22;66269;51.466;7.260;2023-01-26T14:35:39;21.20;39.70
75648;DHT22;66269;51.466;7.260;2023-01-26T14:43:13;21.10;39.60
75648;DHT22;66269;51.466;7.260;2023-01-26T14:48:21;21.20;39.60
75648;DHT22;66269;51.466;7.260;2023-01-26T14:50:49;21.10;40.00
75648;DHT22;66269;51.466;7.260;2023-01-26T14:53:18;21.20;39.80
75648;DHT22;66269;51.466;7.260;2023-01-26T14:55:45;21.20;40.00
75648;DHT22;66269;51.466;7.260;2023-01-26T14:58:28;21.20;40.00
75648;DHT22;66269;51.466;7.260;2023-01-26T15:00:57;21.10;39.90
75648;DHT22;66269;51.466;7.260;2023-01-26T15:03:32;21.10;40.00
75648;DHT22;66269;51.466;7.260;2023-01-26T15:08:39;21.20;40.00
75648;DHT22;66269;51.466;7.260;2023-01-26T15:11:05;21.20;40.00
75648;DHT22;66269;51.466;7.260;2023-01-26T15:13:53;21.20;40.10
75648;DHT22;66269;51.466;7.260;2023-01-26T15:16:23;21.20;40.10
75648;DHT22;66269;51.466;7.260;2023-01-26T15:19:03;21.20;40.20
75648;DHT22;66269;51.466;7.260;2023-01-26T15:21:35;21.10;40.20
75648;DHT22;66269;51.466;7.260;2023-01-26T15:24:04;21.10;40.10
75648;DHT22;66269;51.466;7.260;2023-01-26T15:26:34;21.10;40.30
75648;DHT22;66269;51.466;7.260;2023-01-26T15:29:14;21.10;40.40
75648;DHT22;66269;51.466;7.260;2023-01-26T15:31:41;21.10;40.50
75648;DHT22;66269;51.466;7.260;2023-01-26T15:34:27;21.20;40.40
75648;DHT22;66269;51.466;7.260;2023-01-26T15:36:53;21.10;40.30
75648;DHT22;66269;51.466;7.260;2023-01-26T15:39:21;21.10;40.40
75648;DHT22;66269;51.466;7.260;2023-01-26T15:42:10;21.10;40.40
75648;DHT22;66269;51.466;7.260;2023-01-26T15:44:36;21.20;40.40
75648;DHT22;66269;51.466;7.260;2023-01-26T15:47:02;21.20;40.40
75648;DHT22;66269;51.466;7.260;2023-01-26T15:49:27;21.10;40.50
75648;DHT22;66269;51.466;7.260;2023-01-26T15:51:53;21.10;40.60
75648;DHT22;66269;51.466;7.260;2023-01-26T15:54:18;21.10;40.40
75648;DHT22;66269;51.466;7.260;2023-01-26T15:56:44;21.10;40.50
75648;DHT22;66269;51.466;7.260;2023-01-26T15:59:09;21.10;40.40
75648;DHT22;66269;51.466;7.260;2023-01-26T16:01:35;21.00;40.40
75648;DHT22;66269;51.466;7.260;2023-01-26T16:04:00;21.10;40.50
75648;DHT22;66269;51.466;7.260;2023-01-26T16:06:29;21.00;40.40
75648;DHT22;66269;51.466;7.260;2023-01-26T16:08:55;21.10;40.50
75648;DHT22;66269;51.466;7.260;2023-01-26T16:11:25;21.10;40.70
75648;DHT22;66269;51.466;7.260;2023-01-26T16:13:52;21.00;40.50
75648;DHT22;66269;51.466;7.260;2023-01-26T16:16:18;21.10;40.60
75648;DHT22;66269;51.466;7.260;2023-01-26T16:18:44;21.10;40.80
75648;DHT22;66269;51.466;7.260;2023-01-26T16:21:29;21.10;40.70
75648;DHT22;66269;51.466;7.260;2023-01-26T16:23:58;21.00;40.50
75648;DHT22;66269;51.466;7.260;2023-01-26T16:26:25;21.00;40.70
75648;DHT22;66269;51.466;7.260;2023-01-26T16:28:52;20.90;40.90
75648;DHT22;66269;51.466;7.260;2023-01-26T16:31:20;20.90;40.80
75648;DHT22;66269;51.466;7.260;2023-01-26T16:33:46;20.90;40.80
75648;DHT22;66269;51.466;7.260;2023-01-26T16:36:13;20.80;41.50
75648;DHT22;66269;51.466;7.260;2023-01-26T16:38:40;20.80;41.50
75648;DHT22;66269;51.466;7.260;2023-01-26T16:41:17;20.90;41.50
75648;DHT22;66269;51.466;7.260;2023-01-26T16:43:45;20.80;41.60
75648;DHT22;66269;51.466;7.260;2023-01-26T16:46:11;20.90;41.50
75648;DHT22;66269;51.466;7.260;2023-01-26T16:48:39;20.80;41.70
75648;DHT22;66269;51.466;7.260;2023-01-26T16:51:24;20.80;41.50
75648;DHT22;66269;51.466;7.260;2023-01-26T16:53:51;20.70;41.60
75648;DHT22;66269;51.466;7.260;2023-01-26T16:56:17;20.70;41.60
75648;DHT22;66269;51.466;7.260;2023-01-26T16:58:43;20.80;41.70
75648;DHT22;66269;51.466;7.260;2023-01-26T17:01:21;20.70;41.70
75648;DHT22;66269;51.466;7.260;2023-01-26T17:03:47;20.70;41.80
75648;DHT22;66269;51.466;7.260;2023-01-26T17:06:14;20.70;41.80